< < Back
Terminal Aerodrome Forecast


Current Version              Previous Versions:   1  2  3  4  5  6  7  8  9  

Terminal Aerodrome Forecast

283
FTAK31 PAJN 090521
TAFAGS
TAF
PAGS 090521Z 0906/1006 15010G20KT 6SM -RA BR SCT005 SCT010 OVC040
     FM091000 20010G15KT 6SM -RA BR SCT010 OVC035
     FM091300 24008KT P6SM VCSH SCT010 SCT025 OVC040
     FM091800 34005KT P6SM SCT030 BKN050
     FM100400 34006KT P6SM SCT005 SCT030 BKN050
      AMD LTD TO CLD VIS AND WIND=

Latest METAR

836
SAUS70 KWBC 091200
MTRAGS
METAR KAGS 091153Z 24005KT 10SM OVC055 03/M04 A2982 RMK AO2 SLP098
T00331039 10050 20011 53007


USA.gov is the U.S. government's official web portal to all federal, state and local government web resources and services.